Time;durP1;ratioP1;P1;durP2;ratioP2;P2;SDS_P1;SDS_P2;PMS_P1;PMS_P2;Temp;Humidity;BMP_temperature;BMP_pressure;BME280_temperature;BME280_humidity;BME280_pressure;Samples;Min_cycle;Max_cycle;Signal;HPM_P1;HPM_P2
2022/04/17 00:00:11;;;;;;;1.50;0.88;;;;;;;23.99;38.74;100758.44;4191346;28;20049;-63
2022/04/17 00:02:12;;;;;;;2.22;1.10;;;;;;;24.00;38.85;100803.97;4165510;28;20420;-63
2022/04/17 00:04:17;;;;;;;1.35;1.10;;;;;;;23.98;38.97;100831.41;4180813;28;20501;-63
2022/04/17 00:06:18;;;;;;;1.20;1.10;;;;;;;23.98;39.02;100773.53;4197975;28;20102;-63
2022/04/17 00:08:19;;;;;;;1.45;1.00;;;;;;;23.95;38.76;100661.53;4198215;28;20045;-63
2022/04/17 00:10:21;;;;;;;1.38;1.08;;;;;;;23.86;38.04;100741.63;4198262;28;20040;-63
2022/04/17 00:12:26;;;;;;;1.73;1.17;;;;;;;23.95;38.65;100848.78;4197617;28;20041;-64
2022/04/17 00:14:28;;;;;;;2.78;1.17;;;;;;;23.94;38.45;100856.34;4198316;28;20098;-64
2022/04/17 00:16:29;;;;;;;1.40;1.30;;;;;;;23.88;38.80;100843.59;4193793;28;20040;-64
2022/04/17 00:18:33;;;;;;;1.90;1.00;;;;;;;23.76;39.00;100838.44;4198058;28;20045;-63
2022/04/17 00:20:38;;;;;;;6.07;1.25;;;;;;;23.88;38.79;100851.16;4198110;28;20044;-63
2022/04/17 00:22:39;;;;;;;1.10;0.80;;;;;;;23.81;38.89;100840.34;4197918;28;20036;-63
2022/04/17 00:24:47;;;;;;;1.40;1.30;;;;;;;23.95;39.04;100859.97;4197911;28;20033;-63
2022/04/17 00:26:52;;;;;;;1.35;1.00;;;;;;;23.93;39.06;100851.88;4198000;28;20553;-63
2022/04/17 00:28:53;;;;;;;0.90;0.88;;;;;;;23.92;39.05;100850.25;4181399;28;20079;-63
2022/04/17 00:30:54;;;;;;;1.65;1.00;;;;;;;23.92;38.82;100874.56;4180918;28;20029;-63
2022/04/17 00:32:58;;;;;;;2.53;1.65;;;;;;;23.84;38.89;100924.41;4173944;28;20095;-63
2022/04/17 00:34:59;;;;;;;1.95;1.00;;;;;;;23.91;39.08;100956.72;4163223;28;20068;-63
2022/04/17 00:37:01;;;;;;;2.88;1.27;;;;;;;23.90;38.67;100969.88;4164318;28;20543;-64
2022/04/17 00:39:03;;;;;;;1.50;1.10;;;;;;;23.92;38.70;100991.94;4165845;28;20511;-63
2022/04/17 00:41:04;;;;;;;2.15;1.33;;;;;;;23.89;38.98;100981.34;4197971;28;20102;-63
2022/04/17 00:43:34;;;;;;;2.03;1.00;;;;;;;23.90;38.69;100971.84;4197708;28;20032;-63
2022/04/17 00:45:35;;;;;;;1.10;1.00;;;;;;;23.92;38.92;100986.34;4197506;28;20044;-63
2022/04/17 00:47:37;;;;;;;1.20;1.10;;;;;;;23.90;38.62;100997.81;4197963;28;20434;-63
2022/04/17 00:49:39;;;;;;;1.45;1.02;;;;;;;23.90;38.62;101017.38;4198071;28;20090;-63
2022/04/17 00:51:43;;;;;;;2.00;1.00;;;;;;;23.89;38.34;101026.06;4193798;28;20087;-62
2022/04/17 00:53:45;;;;;;;1.17;0.82;;;;;;;23.88;38.62;101055.16;4181387;28;20045;-63
2022/04/17 00:55:46;;;;;;;1.83;0.95;;;;;;;23.86;38.78;101057.41;4183108;28;20037;-63
2022/04/17 00:57:48;;;;;;;1.25;1.00;;;;;;;23.88;38.96;101083.09;4184676;28;20033;-63
2022/04/17 00:59:50;;;;;;;1.55;0.98;;;;;;;23.88;38.88;101102.66;4184605;28;20098;-64
2022/04/17 01:01:55;;;;;;;3.00;0.90;;;;;;;23.89;39.08;101115.50;4184864;28;20041;-63
2022/04/17 01:03:56;;;;;;;1.20;1.10;;;;;;;23.83;38.95;101112.78;4190478;28;20094;-63
2022/04/17 01:06:00;;;;;;;1.20;1.00;;;;;;;23.89;38.98;101129.47;4200138;28;20041;-63
2022/04/17 01:08:02;;;;;;;1.23;0.90;;;;;;;23.88;38.77;101116.63;4196265;28;20194;-63
2022/04/17 01:10:09;;;;;;;1.80;1.20;;;;;;;23.88;38.79;101114.69;4198858;28;20457;-64
2022/04/17 01:12:14;;;;;;;3.08;0.90;;;;;;;23.87;38.88;101100.97;4170518;28;20076;-63
2022/04/17 01:14:20;;;;;;;1.10;0.90;;;;;;;23.77;38.67;101083.19;4167824;28;20088;-62
2022/04/17 01:16:26;;;;;;;1.33;1.00;;;;;;;23.84;38.52;101100.47;4167572;28;20038;-63
2022/04/17 01:18:27;;;;;;;1.15;0.90;;;;;;;23.86;38.60;101093.72;4167788;28;20041;-62
2022/04/17 01:20:28;;;;;;;2.47;1.02;;;;;;;23.86;38.57;101093.72;4177120;28;20040;-64
2022/04/17 01:22:30;;;;;;;1.20;1.10;;;;;;;23.84;38.33;101135.97;4200743;28;20090;-64
2022/04/17 01:26:56;;;;;;;1.10;1.00;;;;;;;23.71;38.64;101176.59;4200524;28;20102;-63
2022/04/17 01:28:58;;;;;;;1.05;0.95;;;;;;;23.82;38.79;101194.09;4189886;28;20030;-62
2022/04/17 01:30:59;;;;;;;1.88;1.23;;;;;;;23.82;38.79;101167.00;4187466;28;20483;-63
2022/04/17 01:33:01;;;;;;;1.45;1.20;;;;;;;23.83;38.70;101131.50;4199516;28;20033;-64
2022/04/17 01:35:02;;;;;;;1.60;1.00;;;;;;;23.81;38.73;101123.41;4199990;28;20041;-63
2022/04/17 01:37:05;;;;;;;2.30;1.08;;;;;;;23.75;38.58;101138.56;4199119;28;20044;-62
2022/04/17 01:39:06;;;;;;;1.77;1.05;;;;;;;23.81;38.17;101153.31;4179404;28;20045;-63
2022/04/17 01:41:07;;;;;;;2.58;1.10;;;;;;;23.74;38.61;101136.06;4185018;28;20048;-65
2022/04/17 01:43:12;;;;;;;3.97;1.02;;;;;;;23.76;38.55;101123.44;4171932;28;20076;-65
2022/04/17 01:45:13;;;;;;;1.63;1.00;;;;;;;23.77;38.49;101141.88;4181597;28;20071;-65
2022/04/17 01:47:18;;;;;;;1.42;0.90;;;;;;;23.83;38.97;101167.84;4171915;28;20095;-65
2022/04/17 01:49:19;;;;;;;1.95;1.10;;;;;;;23.82;38.43;101175.38;4183471;28;20037;-66
2022/04/17 01:51:21;;;;;;;3.72;1.10;;;;;;;23.82;38.53;101200.53;4185722;28;20086;-64
2022/04/17 01:53:26;;;;;;;7.47;1.50;;;;;;;23.80;38.21;101197.19;4200304;28;20020;-65
2022/04/17 01:55:28;;;;;;;3.08;1.40;;;;;;;23.77;38.16;101186.59;4192759;28;20102;-64
2022/04/17 01:57:32;;;;;;;12.85;1.95;;;;;;;23.72;37.71;101178.25;4189911;28;20105;-64
2022/04/17 01:59:36;;;;;;;5.57;1.20;;;;;;;23.70;37.34;101185.28;4176326;28;20102;-65
2022/04/17 02:01:39;;;;;;;6.43;1.30;;;;;;;23.63;37.66;101160.44;4190228;28;20102;-65
2022/04/17 02:03:41;;;;;;;4.25;1.30;;;;;;;23.67;38.08;101185.88;4185059;28;20126;-67
2022/04/17 02:05:42;;;;;;;4.15;1.05;;;;;;;23.51;37.74;101188.78;4189091;28;20431;-62
2022/04/17 02:07:43;;;;;;;8.30;1.55;;;;;;;23.65;37.37;101253.22;4186611;28;20041;-64
2022/04/17 02:09:45;;;;;;;4.30;1.20;;;;;;;23.51;36.93;101241.00;4186960;28;20045;-64
2022/04/17 02:11:47;;;;;;;6.57;1.30;;;;;;;23.61;37.36;101257.69;4183551;28;20090;-63
2022/04/17 02:13:50;;;;;;;12.82;2.00;;;;;;;23.42;37.14;101245.56;4185355;28;20041;-65
2022/04/17 02:15:53;;;;;;;7.25;1.38;;;;;;;23.59;38.10;101265.50;4182715;28;20102;-62
2022/04/17 02:17:54;;;;;;;8.73;1.75;;;;;;;23.59;37.39;101279.47;4191410;28;20099;-63
2022/04/17 02:19:57;;;;;;;15.40;2.33;;;;;;;23.61;37.54;101259.66;4181611;28;20091;-68
2022/04/17 02:21:59;;;;;;;8.98;2.45;;;;;;;23.56;37.97;101240.97;4179223;28;20431;-64
2022/04/17 02:24:00;;;;;;;12.73;1.65;;;;;;;23.59;37.68;101234.78;4169741;28;20037;-64
2022/04/17 02:26:02;;;;;;;12.55;2.08;;;;;;;23.57;37.83;101240.66;4179296;28;20041;-63
2022/04/17 02:28:03;;;;;;;13.77;2.17;;;;;;;23.60;38.00;101239.25;4170552;28;20032;-62
2022/04/17 02:30:06;;;;;;;11.85;1.95;;;;;;;23.59;37.81;101218.88;4182560;28;20037;-65
2022/04/17 02:32:07;;;;;;;16.70;2.78;;;;;;;23.55;38.16;101211.38;4182750;28;20106;-64
2022/04/17 02:34:13;;;;;;;13.63;2.00;;;;;;;23.57;37.89;101221.09;4182089;28;20099;-64
2022/04/17 02:36:14;;;;;;;15.43;2.22;;;;;;;23.59;38.14;101218.00;4182370;28;20067;-63
2022/04/17 02:38:15;;;;;;;12.43;1.92;;;;;;;23.57;37.83;101209.09;4177976;28;20087;-63
2022/04/17 02:40:17;;;;;;;16.35;3.03;;;;;;;23.55;38.16;101225.34;4174475;28;20049;-65
2022/04/17 02:42:18;;;;;;;18.73;2.42;;;;;;;23.57;38.09;101217.50;4171091;28;20489;-65
2022/04/17 02:44:22;;;;;;;11.93;2.20;;;;;;;23.60;38.95;101216.91;4170243;28;20029;-64
2022/04/17 02:48:43;;;;;;;19.38;2.72;;;;;;;23.64;39.06;101195.69;4180562;28;20094;-64
2022/04/17 02:50:45;;;;;;;19.98;2.50;;;;;;;23.65;39.27;101199.31;4174112;28;20037;-63
2022/04/17 02:52:46;;;;;;;13.98;2.28;;;;;;;23.57;39.58;101170.00;4175223;28;20041;-63
2022/04/17 02:54:54;;;;;;;13.77;2.55;;;;;;;23.64;39.82;101184.50;4165986;28;20099;-63
2022/04/17 02:56:55;;;;;;;21.80;2.33;;;;;;;23.66;40.07;101206.56;4170774;28;20385;-64
2022/04/17 02:58:56;;;;;;;12.38;2.33;;;;;;;23.58;39.47;101242.31;4169505;28;20127;-64
2022/04/17 03:05:41;;;;;;;11.38;2.33;;;;;;;23.66;39.35;101237.28;4174261;28;20547;-65
2022/04/17 03:07:42;;;;;;;13.02;1.98;;;;;;;23.65;39.56;101233.66;4171087;28;20048;-65
2022/04/17 03:09:46;;;;;;;21.83;3.33;;;;;;;23.66;39.86;101226.94;4180785;28;20033;-65
2022/04/17 03:11:48;;;;;;;17.80;2.25;;;;;;;23.65;39.97;101233.66;4170119;28;20100;-64
2022/04/17 03:13:49;;;;;;;23.75;2.88;;;;;;;23.65;39.85;101225.28;4165740;28;20037;-64
2022/04/17 03:15:50;;;;;;;14.48;2.60;;;;;;;23.64;39.78;101204.06;4169709;28;20075;-65
2022/04/17 03:17:52;;;;;;;15.25;2.45;;;;;;;23.66;40.09;101206.56;4172163;28;20095;-65
2022/04/17 03:19:53;;;;;;;10.60;2.75;;;;;;;23.65;39.78;101230.88;4166045;28;20041;-67
2022/04/17 03:21:54;;;;;;;8.32;1.85;;;;;;;23.68;39.80;101237.81;4165537;28;21772;-65
2022/04/17 03:23:56;;;;;;;16.85;2.30;;;;;;;23.68;40.15;101238.66;4166088;28;20453;-64
2022/04/17 03:25:57;;;;;;;15.45;2.50;;;;;;;23.68;40.14;101265.75;4165396;28;20539;-65
2022/04/17 03:28:00;;;;;;;13.65;2.22;;;;;;;23.69;40.04;101240.34;4170049;28;20037;-65
2022/04/17 03:30:02;;;;;;;9.50;2.13;;;;;;;23.63;39.88;101229.44;4180871;28;20036;-65
2022/04/17 03:32:03;;;;;;;8.40;2.13;;;;;;;23.61;40.23;101243.72;4170676;28;20053;-65
2022/04/17 03:34:08;;;;;;;11.77;2.90;;;;;;;23.63;40.13;101257.38;4179085;28;20472;-64
2022/04/17 03:36:09;;;;;;;11.02;2.45;;;;;;;23.70;40.04;101261.56;4172921;28;20442;-64
2022/04/17 03:38:16;;;;;;;12.38;2.30;;;;;;;23.68;39.80;101224.66;4175537;28;20140;-64
2022/04/17 03:40:18;;;;;;;9.20;2.50;;;;;;;23.68;39.90;101213.50;4166091;28;20045;-64
2022/04/17 03:42:22;;;;;;;11.95;1.92;;;;;;;23.68;39.57;101221.88;4165931;28;20041;-63
2022/04/17 03:44:26;;;;;;;9.35;1.95;;;;;;;23.68;39.77;101233.06;4166716;28;20087;-64
2022/04/17 03:46:27;;;;;;;6.15;2.08;;;;;;;23.61;39.35;101231.72;4181380;28;20041;-65
2022/04/17 03:48:29;;;;;;;8.30;2.85;;;;;;;23.69;39.66;101254.31;4175937;28;20034;-65
2022/04/17 03:50:30;;;;;;;6.45;1.60;;;;;;;23.69;39.38;101259.06;4172347;28;20107;-64
2022/04/17 03:52:39;;;;;;;4.00;1.55;;;;;;;23.66;39.49;101262.44;4175819;28;20091;-65
2022/04/17 03:54:40;;;;;;;5.50;1.70;;;;;;;23.69;39.62;101268.28;4164977;28;20045;-64
2022/04/17 03:56:45;;;;;;;4.00;1.75;;;;;;;23.68;39.54;101261.00;4165811;28;20126;-64
2022/04/17 03:58:46;;;;;;;;;;;;;;;23.66;39.28;101266.06;4164863;28;20100;-64
2022/04/17 04:00:48;;;;;;;7.32;1.70;;;;;;;23.71;39.30;101268.81;4166802;28;19924;-65
2022/04/17 04:02:52;;;;;;;5.45;1.65;;;;;;;23.55;39.32;101250.47;4169836;28;20087;-65
2022/04/17 04:04:54;;;;;;;10.90;1.83;;;;;;;23.71;39.42;101270.75;4175307;28;20041;-64
2022/04/17 04:07:00;;;;;;;6.07;1.80;;;;;;;23.69;39.56;101273.88;4165241;28;20037;-64
2022/04/17 04:09:02;;;;;;;4.80;1.85;;;;;;;23.67;39.62;101258.50;4165307;28;20049;-65
2022/04/17 04:11:03;;;;;;;7.47;1.65;;;;;;;23.68;39.67;101277.75;4165467;28;20041;-65
2022/04/17 04:13:04;;;;;;;6.32;1.58;;;;;;;23.69;39.82;101289.78;4165352;28;20049;-65
2022/04/17 04:15:07;;;;;;;5.10;2.05;;;;;;;23.68;39.30;101266.59;4167955;28;20041;-63
2022/04/17 04:17:11;;;;;;;9.48;1.50;;;;;;;23.58;39.62;101247.09;4172623;28;20507;-66
2022/04/17 04:19:13;;;;;;;2.25;1.42;;;;;;;23.54;39.35;101229.22;4175767;28;20036;-65
2022/04/17 04:21:15;;;;;;;6.75;1.33;;;;;;;23.65;39.26;101216.91;4167651;28;20053;-65
2022/04/17 04:23:19;;;;;;;5.43;1.30;;;;;;;23.68;39.18;101260.16;4165543;28;20107;-64
2022/04/17 04:25:23;;;;;;;7.30;2.00;;;;;;;23.66;39.25;101280.03;4179472;28;20041;-64
2022/04/17 04:29:44;;;;;;;5.22;1.40;;;;;;;23.66;39.54;101263.25;4172689;28;20439;-64
2022/04/17 04:31:45;;;;;;;2.80;1.25;;;;;;;23.67;39.53;101280.84;4168244;28;20044;-63
2022/04/17 04:33:47;;;;;;;5.78;1.20;;;;;;;23.64;39.19;101276.69;4164636;28;20115;-63
2022/04/17 04:35:51;;;;;;;2.22;1.40;;;;;;;23.65;39.60;101292.34;4168422;28;20100;-64
2022/04/17 04:37:52;;;;;;;2.95;1.45;;;;;;;23.41;39.36;101249.44;4165136;28;20076;-63
2022/04/17 04:39:54;;;;;;;4.55;1.23;;;;;;;23.66;39.46;101302.38;4174822;28;20526;-65
2022/04/17 04:41:55;;;;;;;2.15;1.20;;;;;;;23.66;39.66;101296.78;4170054;28;20045;-65
2022/04/17 04:44:00;;;;;;;1.95;1.08;;;;;;;23.66;39.29;101295.97;4173922;28;20094;-65
2022/04/17 04:46:07;;;;;;;1.35;1.25;;;;;;;23.65;39.32;101295.13;4164664;28;20481;-65
2022/04/17 04:48:08;;;;;;;2.88;1.25;;;;;;;23.67;39.57;101289.22;4175830;28;20037;-65
2022/04/17 04:50:09;;;;;;;3.38;1.67;;;;;;;23.54;39.47;101287.91;4170901;28;20041;-65
2022/04/17 04:52:14;;;;;;;3.83;1.20;;;;;;;23.66;39.57;101324.72;4172940;28;20511;-65
2022/04/17 04:54:15;;;;;;;3.30;1.73;;;;;;;23.66;39.33;101323.91;4172180;28;20041;-65
2022/04/17 04:56:17;;;;;;;39.28;24.15;;;;;;;23.67;39.16;101333.94;4179360;28;20041;-65
2022/04/17 04:58:21;;;;;;;61.53;37.35;;;;;;;23.65;39.18;101320.28;4169737;28;20100;-66
2022/04/17 05:00:23;;;;;;;71.75;44.20;;;;;;;23.65;39.34;101328.66;4165271;28;20045;-65
2022/04/17 05:02:26;;;;;;;66.22;39.33;;;;;;;23.65;39.13;101339.81;4168117;28;20407;-65
2022/04/17 05:04:29;;;;;;;56.67;33.72;;;;;;;23.64;39.37;101349.34;4164558;28;20037;-65
2022/04/17 05:06:30;;;;;;;46.92;30.13;;;;;;;23.63;39.15;101347.63;4180507;28;20041;-65
2022/04/17 05:08:31;;;;;;;44.45;28.13;;;;;;;23.56;39.00;101358.28;4180921;28;20037;-65
2022/04/17 05:10:38;;;;;;;43.38;24.17;;;;;;;23.63;39.17;101377.50;4182083;28;20372;-65
2022/04/17 05:12:40;;;;;;;42.10;24.38;;;;;;;23.62;39.17;101359.09;4197792;28;20044;-65
2022/04/17 05:14:50;;;;;;;39.30;25.13;;;;;;;23.55;38.71;101335.13;4196440;28;20094;-64
2022/04/17 05:16:51;;;;;;;35.97;23.38;;;;;;;23.62;38.70;101361.88;4197697;28;20426;-64
2022/04/17 05:19:19;;;;;;;34.60;23.08;;;;;;;23.60;38.91;101362.19;4172703;28;20045;-63
2022/04/17 05:21:13;;;;;;;31.48;20.13;;;;;;;23.62;39.08;101350.72;4178431;28;20048;-63
2022/04/17 05:23:25;;;;;;;28.92;19.13;;;;;;;23.60;38.83;101348.22;4159028;28;20115;-64
2022/04/17 05:25:27;;;;;;;26.40;18.67;;;;;;;23.59;38.61;101354.91;4179204;28;20476;-64
2022/04/17 05:27:28;;;;;;;30.83;18.75;;;;;;;23.58;38.60;101361.63;4178805;28;20037;-64
2022/04/17 05:29:29;;;;;;;26.00;17.73;;;;;;;23.56;38.60;101363.88;4168077;28;20036;-65
2022/04/17 05:31:33;;;;;;;30.30;15.27;;;;;;;23.56;38.02;101363.88;4181037;28;20045;-64
2022/04/17 05:33:35;;;;;;;24.52;15.52;;;;;;;23.54;38.50;101372.53;4180267;28;20098;-64
2022/04/17 05:35:37;;;;;;;21.45;14.73;;;;;;;23.50;38.09;101359.44;4180547;28;20468;-66
2022/04/17 05:37:44;;;;;;;20.50;14.20;;;;;;;23.50;38.33;101365.00;4180382;28;20538;-63
2022/04/17 05:39:46;;;;;;;21.52;14.15;;;;;;;23.52;38.63;101362.78;4180423;28;20049;-63
2022/04/17 05:41:48;;;;;;;20.38;13.90;;;;;;;23.53;38.45;101356.91;4174542;28;20049;-63
2022/04/17 05:43:49;;;;;;;23.80;14.15;;;;;;;23.53;38.84;101354.09;4182304;28;20095;-63
2022/04/17 05:45:51;;;;;;;20.90;13.07;;;;;;;23.55;38.45;101371.44;4180155;28;20041;-63
2022/04/17 05:47:52;;;;;;;20.50;12.73;;;;;;;23.55;38.69;101365.00;4183505;28;20103;-64
2022/04/17 05:49:54;;;;;;;22.15;12.73;;;;;;;23.57;38.43;101365.53;4183255;28;20090;-64
2022/04/17 05:51:58;;;;;;;22.13;12.57;;;;;;;23.47;38.98;101354.44;4183989;28;20024;-63
2022/04/17 05:54:01;;;;;;;19.77;12.18;;;;;;;23.58;38.45;101378.38;4170475;28;20091;-63
2022/04/17 05:56:02;;;;;;;21.55;12.93;;;;;;;23.58;38.51;101362.44;4180203;28;20082;-63
2022/04/17 05:58:06;;;;;;;23.25;11.25;;;;;;;23.58;38.34;101351.28;4182160;28;20041;-63
2022/04/17 06:00:08;;;;;;;18.45;10.77;;;;;;;23.51;38.64;101333.19;4172475;28;20033;-64
2022/04/17 06:02:13;;;;;;;17.75;10.95;;;;;;;23.55;38.51;101331.50;4183080;28;20041;-63
2022/04/17 06:04:14;;;;;;;20.88;11.05;;;;;;;23.58;38.48;101347.66;4183580;28;20032;-62
2022/04/17 06:06:19;;;;;;;17.70;9.70;;;;;;;23.57;38.68;101346.81;4182829;28;20506;-65
2022/04/17 06:08:24;;;;;;;15.48;9.40;;;;;;;23.56;38.71;101335.94;4182696;28;20041;-64
2022/04/17 06:10:25;;;;;;;18.05;10.32;;;;;;;23.58;38.79;101316.91;4183440;28;20037;-63
2022/04/17 06:12:26;;;;;;;15.68;8.15;;;;;;;23.58;38.33;101316.91;4182975;28;20041;-63
2022/04/17 06:14:28;;;;;;;16.95;9.40;;;;;;;23.56;38.53;101308.00;4183541;28;20099;-63
2022/04/17 06:16:29;;;;;;;17.98;8.52;;;;;;;23.58;38.40;101319.72;4182230;28;20029;-63
2022/04/17 06:18:31;;;;;;;15.77;8.30;;;;;;;23.50;38.71;101297.97;4182950;28;20045;-63
2022/04/17 06:20:32;;;;;;;16.10;9.32;;;;;;;23.26;38.44;101261.56;4182971;28;20037;-63
2022/04/17 06:22:37;;;;;;;15.68;8.38;;;;;;;23.52;38.47;101313.34;4183030;28;20099;-63
2022/04/17 06:24:44;;;;;;;14.50;7.28;;;;;;;23.57;38.14;101323.63;4183056;28;20037;-63
2022/04/17 06:26:48;;;;;;;17.20;8.65;;;;;;;23.57;38.59;101320.84;4181942;28;20053;-63
2022/04/17 06:28:52;;;;;;;12.50;7.88;;;;;;;23.57;38.40;101327.25;4179179;28;20057;-63
2022/04/17 06:30:57;;;;;;;12.10;6.93;;;;;;;23.49;38.50;101297.16;4175180;28;20450;-63
2022/04/17 06:32:58;;;;;;;11.10;6.18;;;;;;;23.45;38.26;101284.06;4183417;28;20036;-62
2022/04/17 06:34:59;;;;;;;13.18;7.03;;;;;;;23.57;38.27;101292.91;4182360;28;20136;-63
2022/04/17 06:37:00;;;;;;;11.88;6.20;;;;;;;23.56;38.44;101299.63;4181453;28;20048;-62
2022/04/17 06:39:05;;;;;;;11.07;7.03;;;;;;;23.55;38.29;101300.75;4166681;28;20079;-63
2022/04/17 06:41:06;;;;;;;8.88;5.93;;;;;;;23.56;38.35;101302.44;4180754;28;20044;-63
2022/04/17 06:43:09;;;;;;;12.30;7.07;;;;;;;23.55;38.47;101284.84;4189628;28;20044;-63
2022/04/17 06:45:10;;;;;;;10.02;6.53;;;;;;;23.41;38.31;101255.03;4177262;28;20041;-66
2022/04/17 06:47:12;;;;;;;12.25;6.03;;;;;;;23.57;38.71;101292.91;4182246;28;20102;-64
2022/04/17 06:49:14;;;;;;;7.75;4.95;;;;;;;23.55;38.29;101300.75;4182411;28;20417;-64
2022/04/17 06:51:22;;;;;;;9.52;5.50;;;;;;;23.55;38.06;101300.75;4181302;28;20508;-64
2022/04/17 06:53:23;;;;;;;10.45;5.45;;;;;;;23.46;38.33;101285.72;4180311;28;20118;-64
2022/04/17 06:55:25;;;;;;;8.32;4.95;;;;;;;23.53;38.03;101309.41;4195270;28;20045;-64
2022/04/17 06:57:33;;;;;;;7.22;5.25;;;;;;;23.55;38.15;101318.34;4182208;28;20107;-64
2022/04/17 06:59:34;;;;;;;8.80;5.38;;;;;;;23.55;38.35;101312.75;4182603;28;20107;-64
2022/04/17 07:01:38;;;;;;;7.88;5.13;;;;;;;23.55;38.36;101317.53;4177396;28;20374;-64
2022/04/17 07:03:40;;;;;;;6.87;5.00;;;;;;;23.47;38.12;101299.41;4165862;28;20045;-64
2022/04/17 07:05:42;;;;;;;11.70;5.00;;;;;;;23.54;38.13;101316.66;4177023;28;20278;-64
2022/04/17 07:07:44;;;;;;;7.72;4.63;;;;;;;23.54;38.09;101324.22;4182509;28;20041;-63
2022/04/17 07:09:48;;;;;;;10.00;5.18;;;;;;;23.55;38.18;101331.50;4182761;28;20033;-63
2022/04/17 07:11:49;;;;;;;10.38;5.97;;;;;;;23.55;38.39;101349.09;4182517;28;20048;-63
2022/04/17 07:13:51;;;;;;;5.95;3.95;;;;;;;23.54;37.96;101339.00;4182499;28;20427;-63
2022/04/17 07:15:52;;;;;;;7.13;4.35;;;;;;;23.55;38.46;101342.66;4179278;28;20033;-63
2022/04/17 07:17:55;;;;;;;7.25;3.97;;;;;;;23.53;38.24;101342.09;4183029;28;20045;-63
2022/04/17 07:19:57;;;;;;;6.50;4.00;;;;;;;23.53;38.32;101336.50;4182660;28;20041;-63
2022/04/17 07:21:59;;;;;;;6.13;4.28;;;;;;;23.53;38.37;101342.09;4181031;28;20151;-63
2022/04/17 07:24:01;;;;;;;6.43;4.35;;;;;;;23.52;38.33;101344.06;4181312;28;20045;-64
2022/04/17 07:26:03;;;;;;;6.43;3.90;;;;;;;23.45;38.28;101337.13;4180843;28;20545;-63
2022/04/17 07:28:05;;;;;;;6.03;3.80;;;;;;;23.51;38.21;101344.38;4181089;28;20033;-63
2022/04/17 07:30:20;;;;;;;6.55;4.03;;;;;;;23.50;38.27;101351.03;4190457;28;20102;-63
2022/04/17 07:32:22;;;;;;;7.13;3.60;;;;;;;23.50;38.19;101365.00;4182349;28;20041;-63
2022/04/17 07:34:23;;;;;;;5.97;3.70;;;;;;;23.50;38.39;101353.84;4181796;28;20091;-63
2022/04/17 07:36:25;;;;;;;6.63;3.72;;;;;;;23.50;38.03;101360.28;4180481;28;20036;-63
2022/04/17 07:38:26;;;;;;;6.03;3.85;;;;;;;23.48;38.35;101358.91;4180058;28;20053;-63
2022/04/17 07:40:31;;;;;;;6.35;3.90;;;;;;;23.50;38.08;101353.84;4181977;28;20099;-63
2022/04/17 07:42:33;;;;;;;5.18;3.33;;;;;;;23.50;38.01;101353.84;4181710;28;20496;-63
2022/04/17 07:44:37;;;;;;;7.40;3.60;;;;;;;23.48;37.94;101340.16;4181830;28;20090;-63
2022/04/17 07:46:42;;;;;;;5.00;3.10;;;;;;;23.49;38.52;101335.41;4198714;28;20090;-63
2022/04/17 07:48:43;;;;;;;4.75;3.25;;;;;;;23.47;38.57;101337.69;4183459;28;20459;-63
2022/04/17 07:50:45;;;;;;;3.00;2.50;;;;;;;23.34;38.25;101317.63;4181575;28;20032;-63
2022/04/17 07:52:50;;;;;;;4.82;2.55;;;;;;;23.38;38.50;101328.25;4181342;28;20036;-63
2022/04/17 07:54:54;;;;;;;4.32;2.92;;;;;;;23.40;38.47;101340.78;4175764;28;20440;-64
2022/04/17 07:56:56;;;;;;;4.45;3.00;;;;;;;23.45;38.33;101351.09;4181285;28;20041;-63
2022/04/17 07:58:57;;;;;;;4.22;3.35;;;;;;;23.45;38.34;101371.47;4181718;28;20114;-63
2022/04/17 08:00:59;;;;;;;6.10;2.85;;;;;;;23.47;38.39;101377.63;4181575;28;20091;-63
2022/04/17 08:03:07;;;;;;;3.38;2.63;;;;;;;23.39;38.46;101369.00;4181065;28;20052;-63
2022/04/17 08:05:08;;;;;;;5.10;2.53;;;;;;;23.47;38.39;101387.97;4180630;28;20041;-63
2022/04/17 08:07:10;;;;;;;3.85;2.60;;;;;;;23.47;38.25;101385.16;4181433;28;20557;-63
2022/04/17 08:09:11;;;;;;;3.72;2.40;;;;;;;23.46;38.22;101387.13;4181575;28;20094;-63
2022/04/17 08:11:16;;;;;;;4.15;2.47;;;;;;;23.45;38.32;101392.97;4176888;28;20103;-64
2022/04/17 08:13:17;;;;;;;4.15;2.50;;;;;;;23.43;38.01;101392.44;4178786;28;20514;-64
2022/04/17 08:15:19;;;;;;;2.58;1.80;;;;;;;23.43;38.49;101398.03;4180729;28;20033;-63
2022/04/17 08:17:20;;;;;;;4.55;2.33;;;;;;;23.43;37.96;101406.41;4182145;28;20454;-63
2022/04/17 08:19:22;;;;;;;4.20;2.35;;;;;;;23.38;37.95;101400.84;4183960;28;20098;-63
2022/04/17 08:21:25;;;;;;;3.67;2.20;;;;;;;23.43;37.96;101409.19;4180937;28;20041;-63
2022/04/17 08:23:28;;;;;;;2.83;2.25;;;;;;;23.35;38.21;101402.25;4180310;28;20114;-63
2022/04/17 08:25:29;;;;;;;3.75;2.22;;;;;;;23.42;37.93;101418.72;4180784;28;20434;-63
2022/04/17 08:27:30;;;;;;;2.00;1.80;;;;;;;23.41;37.86;101417.84;4180847;28;20099;-63
2022/04/17 08:29:32;;;;;;;2.65;1.98;;;;;;;23.41;38.16;101431.81;4169908;28;20110;-63
2022/04/17 08:31:37;;;;;;;3.25;2.25;;;;;;;23.38;38.29;101435.19;4176876;28;20106;-63
2022/04/17 08:33:38;;;;;;;2.65;1.98;;;;;;;23.41;38.36;101439.34;4180559;28;20492;-63
2022/04/17 08:35:39;;;;;;;3.33;2.00;;;;;;;23.40;37.74;101454.44;4190962;28;20044;-63
2022/04/17 08:37:41;;;;;;;5.07;1.90;;;;;;;23.40;38.07;101446.91;4180853;28;20103;-63
2022/04/17 08:39:42;;;;;;;3.88;2.10;;;;;;;23.32;38.24;101442.75;4181331;28;20078;-63
2022/04/17 08:41:50;;;;;;;3.08;2.00;;;;;;;23.40;37.87;101460.03;4181360;28;20516;-64
2022/04/17 08:43:54;;;;;;;2.65;1.85;;;;;;;23.39;38.00;101464.78;4191124;28;20143;-64
2022/04/17 08:45:55;;;;;;;1.90;1.63;;;;;;;23.39;37.90;101469.53;4175840;28;20045;-64
2022/04/17 08:47:57;;;;;;;3.42;1.52;;;;;;;23.39;37.95;101469.53;4172170;28;20462;-64
2022/04/17 08:50:00;;;;;;;1.65;1.50;;;;;;;23.39;37.99;101469.53;4179938;28;20099;-64
2022/04/17 08:52:02;;;;;;;3.33;1.83;;;;;;;23.38;37.89;101473.47;4181079;28;20041;-64
2022/04/17 08:54:06;;;;;;;2.42;1.60;;;;;;;23.38;37.67;101493.00;4181082;28;20049;-64
2022/04/17 08:56:07;;;;;;;1.63;1.52;;;;;;;23.35;38.25;101477.66;4180484;28;20106;-63
2022/04/17 08:58:11;;;;;;;2.20;1.60;;;;;;;23.38;37.63;101490.22;4180732;28;20044;-64
2022/04/17 09:00:16;;;;;;;2.15;1.50;;;;;;;23.38;37.79;101495.81;4181421;28;20354;-64
2022/04/17 09:02:18;;;;;;;2.10;1.60;;;;;;;23.36;37.91;101503.63;4164941;28;20050;-64
2022/04/17 09:04:22;;;;;;;3.78;1.60;;;;;;;23.35;37.76;101513.94;4180787;28;20037;-64
2022/04/17 09:06:24;;;;;;;2.55;1.70;;;;;;;23.36;37.66;101520.38;4176209;28;20033;-64
2022/04/17 09:08:25;;;;;;;1.45;1.35;;;;;;;23.23;37.83;101505.91;4172794;28;20099;-64
2022/04/17 09:10:28;;;;;;;2.85;1.52;;;;;;;23.17;37.67;101490.25;4180767;28;20037;-64
2022/04/17 09:12:30;;;;;;;1.70;1.50;;;;;;;23.33;37.48;101522.63;4180014;28;20491;-64
2022/04/17 09:14:31;;;;;;;3.10;1.58;;;;;;;23.33;37.74;101533.78;4181093;28;20095;-64
2022/04/17 09:16:38;;;;;;;2.05;1.30;;;;;;;23.33;37.60;101546.94;4182372;28;20052;-63
2022/04/17 09:18:40;;;;;;;2.10;1.40;;;;;;;23.32;37.83;101537.72;4180307;28;20094;-64
2022/04/17 09:20:47;;;;;;;2.08;1.60;;;;;;;23.31;37.58;101546.34;4184102;28;20041;-64
2022/04/17 09:22:56;;;;;;;1.30;1.20;;;;;;;23.32;37.47;101562.84;4173592;28;20057;-64
2022/04/17 09:25:11;;;;;;;1.73;1.45;;;;;;;23.30;37.62;101562.28;4184242;28;20130;-63
2022/04/17 09:27:12;;;;;;;1.60;1.50;;;;;;;23.31;37.33;101563.09;4184872;28;20622;-64
2022/04/17 09:29:22;;;;;;;1.65;1.20;;;;;;;23.29;37.59;101560.59;4186186;28;20048;-63
2022/04/17 09:31:28;;;;;;;2.03;1.40;;;;;;;23.30;37.53;101567.84;4201031;28;20049;-63
2022/04/17 09:33:42;;;;;;;1.98;1.40;;;;;;;23.28;37.51;101564.53;4193016;28;20041;-63
2022/04/17 09:35:58;;;;;;;2.05;1.60;;;;;;;23.28;37.53;101575.69;4183607;28;20075;-63
2022/04/17 09:38:03;;;;;;;1.25;1.15;;;;;;;23.27;37.71;101567.59;4172221;28;20046;-64
2022/04/17 09:40:11;;;;;;;2.38;1.02;;;;;;;23.28;37.78;101588.81;4181921;28;20442;-64